createdAt,value
2023-02-13T00:00:50.559Z,2.00
2023-02-13T00:03:16.579Z,2.00
2023-02-13T00:05:41.174Z,2.00
2023-02-13T00:08:07.413Z,2.00
2023-02-13T00:10:32.009Z,2.00
2023-02-13T00:12:57.407Z,1.80
2023-02-13T00:15:23.177Z,1.80
2023-02-13T00:17:47.918Z,1.80
2023-02-13T00:20:13.235Z,1.80
2023-02-13T00:22:38.128Z,1.90
2023-02-13T00:25:04.247Z,1.90
2023-02-13T00:27:29.033Z,1.80
2023-02-13T00:29:53.432Z,1.80
2023-02-13T00:32:18.086Z,1.70
2023-02-13T00:34:44.173Z,1.70
2023-02-13T00:37:12.108Z,1.70
2023-02-13T00:39:36.468Z,1.70
2023-02-13T00:42:02.460Z,1.70
2023-02-13T00:44:26.887Z,1.70
2023-02-13T00:46:51.990Z,1.70
2023-02-13T00:49:16.443Z,1.60
2023-02-13T00:51:40.913Z,1.50
2023-02-13T00:54:05.434Z,1.50
2023-02-13T00:56:30.174Z,1.50
2023-02-13T00:58:56.023Z,1.50
2023-02-13T01:01:22.813Z,1.40
2023-02-13T01:03:47.446Z,1.40
2023-02-13T01:06:11.957Z,1.40
2023-02-13T01:08:37.944Z,1.50
2023-02-13T01:11:02.829Z,1.50
2023-02-13T01:13:27.736Z,1.50
2023-02-13T01:15:57.195Z,1.50
2023-02-13T01:18:22.373Z,1.40
2023-02-13T01:20:47.617Z,1.40
2023-02-13T01:23:13.162Z,1.40
2023-02-13T01:25:40.451Z,1.40
2023-02-13T01:28:05.288Z,1.40
2023-02-13T01:30:29.755Z,1.50
2023-02-13T01:32:55.776Z,1.50
2023-02-13T01:35:20.331Z,1.50
2023-02-13T01:37:45.354Z,1.50
2023-02-13T01:40:13.616Z,1.40
2023-02-13T01:42:38.189Z,1.40
2023-02-13T01:45:04.246Z,1.40
2023-02-13T01:47:31.461Z,1.50
2023-02-13T01:50:07.499Z,1.50
2023-02-13T01:52:32.361Z,1.60
2023-02-13T01:54:57.242Z,1.50
2023-02-13T01:57:26.222Z,1.30
2023-02-13T01:59:56.577Z,1.30
2023-02-13T02:02:22.185Z,1.30
2023-02-13T02:04:48.105Z,1.40
2023-02-13T02:07:21.402Z,1.30
2023-02-13T02:09:47.629Z,1.20
2023-02-13T02:12:22.427Z,1.10
2023-02-13T02:14:47.240Z,1.00
2023-02-13T02:17:12.824Z,1.00
2023-02-13T02:19:43.204Z,1.00
2023-02-13T02:22:34.459Z,1.00
2023-02-13T02:25:31.839Z,0.90
2023-02-13T02:28:26.251Z,0.80
2023-02-13T02:31:19.525Z,0.80
2023-02-13T02:33:57.077Z,0.70
2023-02-13T02:36:34.309Z,0.70
2023-02-13T02:39:13.236Z,0.60
2023-02-13T02:41:52.307Z,0.60
2023-02-13T02:44:32.802Z,0.50
2023-02-13T02:47:26.414Z,0.50
2023-02-13T02:50:02.253Z,0.40
2023-02-13T02:52:36.107Z,0.30
2023-02-13T02:55:08.629Z,0.40
2023-02-13T02:58:07.561Z,0.30
2023-02-13T03:00:52.355Z,0.40
2023-02-13T03:03:37.810Z,0.50
2023-02-13T03:06:14.152Z,0.30
2023-02-13T03:08:57.811Z,0.40
2023-02-13T03:11:37.150Z,0.40
2023-02-13T03:14:04.728Z,0.40
2023-02-13T03:16:46.549Z,0.30
2023-02-13T03:19:35.965Z,0.20
2023-02-13T03:22:19.728Z,0.10
2023-02-13T03:24:59.939Z,0.00
2023-02-13T03:27:53.121Z,0.00
2023-02-13T03:30:26.648Z,0.00
2023-02-13T03:33:01.107Z,0.00
2023-02-13T03:35:53.039Z,0.00
2023-02-13T03:38:23.620Z,0.00
2023-02-13T03:41:10.663Z,-0.20
2023-02-13T03:43:43.222Z,0.00
2023-02-13T03:46:08.531Z,0.10
2023-02-13T03:49:05.833Z,0.00
2023-02-13T03:51:35.410Z,-0.10
2023-02-13T03:54:06.425Z,-0.10
2023-02-13T03:56:51.030Z,0.00
2023-02-13T03:59:23.579Z,0.00
2023-02-13T04:01:54.768Z,-0.20
2023-02-13T04:04:27.926Z,-0.20
2023-02-13T04:06:57.519Z,-0.30
2023-02-13T04:09:24.452Z,-0.30
2023-02-13T04:11:57.636Z,-0.40
2023-02-13T04:14:26.477Z,-0.40
2023-02-13T04:16:54.512Z,-0.30
2023-02-13T04:19:19.755Z,-0.30
2023-02-13T04:21:44.224Z,-0.40
2023-02-13T04:24:10.016Z,-0.50
2023-02-13T04:26:39.221Z,-0.50
2023-02-13T04:29:03.864Z,-0.50
2023-02-13T04:31:28.390Z,-0.60
2023-02-13T04:33:53.208Z,-0.60
2023-02-13T04:36:17.576Z,-0.60
2023-02-13T04:38:41.952Z,-0.60
2023-02-13T04:41:06.832Z,-0.60
2023-02-13T04:43:32.770Z,-0.70
2023-02-13T04:45:57.657Z,-0.70
2023-02-13T04:48:22.268Z,-0.70
2023-02-13T04:50:47.896Z,-0.70
2023-02-13T04:53:12.430Z,-0.70
2023-02-13T04:55:37.424Z,-0.70
2023-02-13T04:58:01.828Z,-0.70
2023-02-13T05:00:29.918Z,-0.70
2023-02-13T05:02:55.064Z,-0.80
2023-02-13T05:05:19.548Z,-0.70
2023-02-13T05:07:44.253Z,-0.60
2023-02-13T05:10:09.653Z,-0.60
2023-02-13T05:12:34.162Z,-0.60
2023-02-13T05:14:59.007Z,-0.60
2023-02-13T05:17:27.324Z,-0.70
2023-02-13T05:19:53.207Z,-0.70
2023-02-13T05:22:40.197Z,-0.60
2023-02-13T05:25:04.685Z,-0.50
2023-02-13T05:27:28.962Z,-0.40
2023-02-13T05:29:53.342Z,-0.30
2023-02-13T05:32:17.729Z,0.00
2023-02-13T05:34:43.479Z,0.40
2023-02-13T05:37:07.783Z,0.80
2023-02-13T05:39:33.829Z,1.20
2023-02-13T05:41:58.626Z,1.70
2023-02-13T05:44:23.037Z,2.20
2023-02-13T05:46:47.611Z,2.80
2023-02-13T05:49:13.232Z,3.20
2023-02-13T05:51:38.966Z,3.60
2023-02-13T05:54:03.411Z,3.80
2023-02-13T05:56:28.156Z,4.00
2023-02-13T05:58:53.816Z,4.00
2023-02-13T06:01:18.213Z,4.30
2023-02-13T06:03:42.671Z,4.70
2023-02-13T06:06:07.420Z,5.00
2023-02-13T06:08:33.326Z,5.10
2023-02-13T06:10:57.816Z,5.50
2023-02-13T06:13:22.535Z,5.70
2023-02-13T06:15:46.916Z,6.10
2023-02-13T06:18:11.587Z,6.30
2023-02-13T06:20:37.612Z,6.10
2023-02-13T06:23:02.478Z,6.20
2023-02-13T06:25:28.276Z,6.20
2023-02-13T06:27:52.767Z,6.30
2023-02-13T06:30:19.184Z,6.20
2023-02-13T06:32:43.610Z,6.20
2023-02-13T06:35:09.099Z,6.10
2023-02-13T06:37:33.483Z,6.40
2023-02-13T06:39:58.035Z,6.90
2023-02-13T06:42:24.481Z,7.40
2023-02-13T06:44:48.907Z,7.40
2023-02-13T06:47:13.303Z,7.40
2023-02-13T06:49:37.915Z,7.70
2023-02-13T06:52:02.648Z,7.90
2023-02-13T06:54:41.407Z,7.90
2023-02-13T06:57:10.575Z,8.20
2023-02-13T06:59:38.377Z,8.40
2023-02-13T07:02:02.745Z,8.60
2023-02-13T07:04:27.126Z,8.40
2023-02-13T07:06:51.719Z,8.50
2023-02-13T07:09:16.705Z,8.80
2023-02-13T07:11:41.338Z,8.60
2023-02-13T07:14:05.687Z,8.60
2023-02-13T07:16:31.851Z,8.80
2023-02-13T07:18:56.264Z,9.20
2023-02-13T07:21:20.711Z,9.20
2023-02-13T07:23:45.377Z,9.30
2023-02-13T07:26:11.202Z,9.30
2023-02-13T07:28:35.548Z,9.20
2023-02-13T07:31:04.619Z,9.40
2023-02-13T07:33:30.602Z,9.50
2023-02-13T07:35:55.010Z,9.60
2023-02-13T07:38:21.682Z,9.70
2023-02-13T07:40:46.319Z,9.70
2023-02-13T07:43:10.914Z,9.80
2023-02-13T07:45:35.301Z,10.00
2023-02-13T07:48:00.406Z,9.50
2023-02-13T07:50:26.137Z,9.40
2023-02-13T07:52:55.873Z,9.90
2023-02-13T07:55:20.187Z,10.00
2023-02-13T07:57:44.511Z,10.20
2023-02-13T08:00:10.652Z,10.50
2023-02-13T08:02:38.444Z,10.70
2023-02-13T08:05:03.209Z,10.30
2023-02-13T08:07:32.320Z,9.90
2023-02-13T08:10:14.176Z,9.90
2023-02-13T08:12:40.449Z,10.20
2023-02-13T08:15:05.835Z,10.10
2023-02-13T08:17:31.431Z,10.50
2023-02-13T08:19:56.457Z,10.00
2023-02-13T08:22:21.122Z,9.90
2023-02-13T08:24:46.979Z,9.90
2023-02-13T08:27:14.421Z,9.80
2023-02-13T08:29:39.194Z,9.40
2023-02-13T08:32:03.859Z,9.70
2023-02-13T08:34:28.905Z,9.60
2023-02-13T08:36:54.129Z,9.20
2023-02-13T08:39:19.043Z,9.20
2023-02-13T08:41:44.994Z,9.00
2023-02-13T08:44:11.136Z,8.90
2023-02-13T08:46:36.029Z,9.20
2023-02-13T08:49:00.823Z,9.40
2023-02-13T08:51:25.909Z,9.30
2023-02-13T09:27:42.492Z,8.90
2023-02-13T12:45:38.437Z,9.80
2023-02-13T13:07:46.952Z,9.90
2023-02-13T13:10:58.386Z,9.90
2023-02-13T13:16:59.460Z,9.80
2023-02-13T13:19:39.771Z,9.70
2023-02-13T13:22:18.360Z,9.80
2023-02-13T13:24:52.081Z,9.60
2023-02-13T13:27:24.709Z,9.60
2023-02-13T13:29:58.055Z,9.60
2023-02-13T13:32:27.672Z,9.50
2023-02-13T13:35:31.187Z,9.60
2023-02-13T13:38:25.516Z,9.80
2023-02-13T13:40:57.797Z,9.70
2023-02-13T13:43:29.819Z,9.70
2023-02-13T13:46:07.151Z,9.60
2023-02-13T13:49:06.922Z,9.50
2023-02-13T13:51:34.645Z,9.60
2023-02-13T13:54:25.617Z,9.40
2023-02-13T13:57:48.259Z,9.50
2023-02-13T14:00:35.180Z,9.40
2023-02-13T14:03:49.969Z,9.40
2023-02-13T14:06:16.793Z,9.50
2023-02-13T14:09:09.573Z,9.40
2023-02-13T14:11:39.770Z,9.30
2023-02-13T14:14:52.702Z,9.20
2023-02-13T14:17:18.841Z,9.00
2023-02-13T14:19:56.915Z,8.90
2023-02-13T14:22:35.574Z,8.90
2023-02-13T14:25:01.855Z,8.80
2023-02-13T14:27:30.354Z,8.80
2023-02-13T14:31:17.033Z,8.70
2023-02-13T14:33:44.423Z,8.50
2023-02-13T14:36:22.162Z,8.40
2023-02-13T14:38:55.801Z,8.40
2023-02-13T14:41:57.750Z,8.40
2023-02-13T14:44:26.410Z,8.30
2023-02-13T14:46:58.435Z,8.30
2023-02-13T14:49:26.784Z,8.40
2023-02-13T14:51:57.277Z,8.50
2023-02-13T14:54:31.442Z,8.50
2023-02-13T14:57:46.133Z,8.50
2023-02-13T15:01:48.537Z,8.40
2023-02-13T15:10:37.403Z,8.40
2023-02-13T15:13:56.164Z,8.40
2023-02-13T15:16:44.995Z,8.40
2023-02-13T15:19:17.366Z,8.50
2023-02-13T15:22:14.494Z,8.30
2023-02-13T15:25:06.458Z,8.20
2023-02-13T15:28:18.392Z,7.90
2023-02-13T15:30:59.113Z,8.00
2023-02-13T15:34:08.971Z,7.90
2023-02-13T15:36:57.977Z,7.70
2023-02-13T15:39:54.200Z,7.50
2023-02-13T15:43:24.410Z,7.40
2023-02-13T15:45:55.599Z,7.30
2023-02-13T15:48:28.758Z,7.10
2023-02-13T15:51:24.411Z,7.10
2023-02-13T15:54:03.272Z,7.10
2023-02-13T15:57:03.790Z,7.10
2023-02-13T15:59:36.622Z,7.00
2023-02-13T16:02:07.106Z,7.00
2023-02-13T16:04:40.785Z,7.00
2023-02-13T16:07:16.696Z,6.90
2023-02-13T16:09:43.552Z,6.90
2023-02-13T16:12:22.521Z,6.80
2023-02-13T16:14:53.110Z,6.80
2023-02-13T16:17:20.593Z,6.80
2023-02-13T16:19:54.549Z,6.70
2023-02-13T16:22:30.773Z,6.60
2023-02-13T16:25:03.096Z,6.60
2023-02-13T16:27:32.805Z,6.60
2023-02-13T16:30:01.964Z,6.50
2023-02-13T16:32:41.565Z,6.40
2023-02-13T16:35:32.526Z,6.40
2023-02-13T16:38:07.393Z,6.30
2023-02-13T16:41:02.530Z,6.30
2023-02-13T16:44:01.838Z,6.20
2023-02-13T16:46:55.173Z,6.20
2023-02-13T16:49:37.826Z,6.10
2023-02-13T16:52:24.300Z,6.10
2023-02-13T16:55:00.652Z,6.00
2023-02-13T16:57:39.286Z,5.90
2023-02-13T17:00:09.912Z,5.90
2023-02-13T17:02:37.392Z,5.90
2023-02-13T17:05:18.505Z,6.00
2023-02-13T17:07:45.148Z,5.90
2023-02-13T17:10:20.354Z,5.80
2023-02-13T17:12:46.226Z,5.80
2023-02-13T17:15:14.111Z,5.70
2023-02-13T17:17:47.594Z,5.70
2023-02-13T17:20:17.736Z,5.60
2023-02-13T17:22:47.425Z,5.60
2023-02-13T17:25:20.862Z,5.50
2023-02-13T17:27:45.938Z,5.50
2023-02-13T17:30:21.174Z,5.40
2023-02-13T17:32:52.705Z,5.50
2023-02-13T17:35:34.693Z,5.50
2023-02-13T17:38:02.341Z,5.50
2023-02-13T17:40:30.321Z,5.40
2023-02-13T17:43:17.158Z,5.30
2023-02-13T17:45:43.762Z,5.30
2023-02-13T17:48:09.975Z,5.30
2023-02-13T17:50:35.463Z,5.20
2023-02-13T17:53:02.570Z,5.30
2023-02-13T17:55:30.874Z,5.30
2023-02-13T17:57:57.663Z,5.30
2023-02-13T18:00:22.943Z,5.30
2023-02-13T18:02:48.008Z,5.30
2023-02-13T18:05:13.990Z,5.40
2023-02-13T18:07:39.529Z,5.40
2023-02-13T18:10:04.057Z,5.40
2023-02-13T18:12:28.477Z,5.30
2023-02-13T18:14:54.065Z,5.30
2023-02-13T18:17:19.462Z,5.20
2023-02-13T18:19:44.207Z,5.10
2023-02-13T18:22:11.462Z,5.00
2023-02-13T18:24:37.754Z,4.80
2023-02-13T18:27:02.333Z,4.80
2023-02-13T18:29:27.279Z,4.80
2023-02-13T18:31:53.361Z,4.80
2023-02-13T18:34:17.845Z,4.80
2023-02-13T18:36:42.229Z,4.80
2023-02-13T18:39:08.655Z,4.80
2023-02-13T18:41:33.035Z,4.90
2023-02-13T18:43:58.160Z,4.90
2023-02-13T18:46:23.777Z,4.80
2023-02-13T18:48:48.464Z,4.80
2023-02-13T18:51:12.835Z,4.70
2023-02-13T18:53:37.245Z,4.70
2023-02-13T18:56:05.405Z,4.70
2023-02-13T18:58:30.771Z,4.80
2023-02-13T19:00:55.316Z,4.80
2023-02-13T19:03:19.902Z,4.70
2023-02-13T19:05:44.537Z,4.70
2023-02-13T19:08:09.074Z,4.60
2023-02-13T19:10:33.523Z,4.70
2023-02-13T19:12:59.421Z,4.60
2023-02-13T19:15:23.763Z,4.70
2023-02-13T19:17:48.447Z,4.60
2023-02-13T19:20:16.513Z,4.50
2023-02-13T19:22:41.245Z,4.50
2023-02-13T19:25:05.884Z,4.50
2023-02-13T19:27:31.492Z,4.50
2023-02-13T19:29:57.796Z,4.40
2023-02-13T19:32:26.342Z,4.30
2023-02-13T19:34:50.906Z,4.30
2023-02-13T19:37:15.506Z,4.30
2023-02-13T19:39:40.344Z,4.30
2023-02-13T19:42:05.191Z,4.20
2023-02-13T19:44:29.725Z,4.30
2023-02-13T19:46:55.508Z,4.20
2023-02-13T19:49:22.390Z,4.20
2023-02-13T19:51:47.424Z,4.10
2023-02-13T19:54:12.888Z,4.10
2023-02-13T19:56:39.325Z,4.10
2023-02-13T19:59:04.214Z,4.00
2023-02-13T20:01:30.743Z,4.00
2023-02-13T20:03:57.174Z,4.10
2023-02-13T20:06:23.930Z,4.00
2023-02-13T20:08:48.581Z,3.90
2023-02-13T20:11:15.389Z,4.00
2023-02-13T20:13:42.860Z,4.00
2023-02-13T20:16:08.479Z,4.00
2023-02-13T20:18:33.696Z,3.90
2023-02-13T20:20:59.776Z,3.90
2023-02-13T20:23:24.513Z,3.90
2023-02-13T20:25:48.890Z,4.00
2023-02-13T20:28:13.294Z,3.90
2023-02-13T20:30:37.922Z,3.80
2023-02-13T20:33:02.288Z,3.70
2023-02-13T20:35:26.905Z,3.60
2023-02-13T20:37:52.631Z,3.60
2023-02-13T20:40:17.389Z,3.60
2023-02-13T20:42:41.738Z,3.40
2023-02-13T20:45:07.103Z,3.30
2023-02-13T20:47:32.760Z,3.30
2023-02-13T20:49:57.183Z,3.40
2023-02-13T20:52:21.540Z,3.50
2023-02-13T20:54:47.870Z,3.50
2023-02-13T20:57:13.372Z,3.50
2023-02-13T20:59:40.076Z,3.60
2023-02-13T21:02:04.530Z,3.60
2023-02-13T21:04:30.268Z,3.60
2023-02-13T21:06:55.706Z,3.60
2023-02-13T21:09:20.168Z,3.50
2023-02-13T21:11:46.166Z,3.40
2023-02-13T21:14:11.932Z,3.50
2023-02-13T21:16:38.945Z,3.50
2023-02-13T21:19:07.120Z,3.40
2023-02-13T21:21:34.129Z,3.40
2023-02-13T21:24:00.775Z,3.40
2023-02-13T21:26:26.349Z,3.50
2023-02-13T21:28:53.102Z,3.50
2023-02-13T21:31:20.695Z,3.40
2023-02-13T21:33:45.712Z,3.30
2023-02-13T21:36:13.537Z,3.40
2023-02-13T21:38:40.253Z,3.40
2023-02-13T21:41:09.038Z,3.50
2023-02-13T21:43:37.747Z,3.40
2023-02-13T21:46:09.966Z,3.50
2023-02-13T21:48:34.790Z,3.50
2023-02-13T21:50:59.781Z,3.50
2023-02-13T21:53:24.446Z,3.30
2023-02-13T21:55:48.813Z,3.20
2023-02-13T21:58:13.231Z,3.20
2023-02-13T22:00:37.690Z,3.20
2023-02-13T22:03:03.941Z,3.30
2023-02-13T22:05:28.336Z,3.30
2023-02-13T22:08:12.466Z,3.30
2023-02-13T22:10:36.865Z,3.20
2023-02-13T22:13:01.210Z,3.20
2023-02-13T22:15:26.029Z,3.20
2023-02-13T22:17:50.413Z,3.10
2023-02-13T22:20:16.484Z,3.20
2023-02-13T22:22:41.025Z,3.10
2023-02-13T22:25:05.579Z,3.00
2023-02-13T22:27:30.419Z,3.10
2023-02-13T22:29:55.891Z,3.00
2023-02-13T22:32:20.534Z,2.90
2023-02-13T22:34:45.115Z,2.90
2023-02-13T22:37:12.706Z,2.90
2023-02-13T22:39:37.200Z,2.80
2023-02-13T22:42:01.473Z,2.80
2023-02-13T22:44:25.868Z,2.90
2023-02-13T22:46:50.263Z,2.90
2023-02-13T22:49:14.590Z,2.90
2023-02-13T22:51:39.067Z,2.90
2023-02-13T22:54:05.349Z,2.80
2023-02-13T22:56:31.065Z,2.80
2023-02-13T22:58:55.761Z,2.80
2023-02-13T23:01:22.093Z,2.80
2023-02-13T23:03:46.675Z,2.80
2023-02-13T23:06:12.479Z,2.80
2023-02-13T23:08:39.826Z,2.80
2023-02-13T23:11:26.318Z,2.70
2023-02-13T23:13:50.774Z,2.70
2023-02-13T23:16:15.915Z,2.70
2023-02-13T23:18:39.280Z,2.80
2023-02-13T23:21:06.533Z,2.70
2023-02-13T23:23:30.847Z,2.60
2023-02-13T23:25:55.275Z,2.30
2023-02-13T23:28:21.001Z,2.00
2023-02-13T23:30:45.491Z,1.90
2023-02-13T23:33:10.174Z,1.90
2023-02-13T23:35:34.659Z,2.00
2023-02-13T23:37:59.301Z,2.10
2023-02-13T23:40:23.974Z,2.20
2023-02-13T23:42:48.555Z,2.20
2023-02-13T23:45:14.932Z,1.90
2023-02-13T23:47:39.931Z,1.60
2023-02-13T23:50:05.235Z,1.70
2023-02-13T23:52:29.719Z,1.90
2023-02-13T23:54:54.314Z,1.90
2023-02-13T23:57:20.046Z,2.00
2023-02-13T23:59:44.512Z,2.10
